Time;durP1;ratioP1;P1;durP2;ratioP2;P2;SDS_P1;SDS_P2;PMS_P1;PMS_P2;Temp;Humidity;BMP_temperature;BMP_pressure;BME280_temperature;BME280_humidity;BME280_pressure;Samples;Min_cycle;Max_cycle;Signal;HPM_P1;HPM_P2
2023/05/27 00:01:41;;;;;;;0.10;0.10;;;8.70;99.90;;;;;;4888425;29;20076;-88
2023/05/27 00:04:09;;;;;;;0.20;0.20;;;8.60;99.90;;;;;;4888954;29;20041;-88
2023/05/27 00:06:36;;;;;;;0.20;0.20;;;8.50;99.90;;;;;;4883629;29;20055;-88
2023/05/27 00:09:01;;;;;;;0.10;0.10;;;8.60;99.90;;;;;;4870417;29;20580;-88
2023/05/27 00:11:27;;;;;;;0.20;0.20;;;8.60;99.90;;;;;;4866666;29;20053;-88
2023/05/27 00:13:53;;;;;;;0.20;0.20;;;8.60;99.90;;;;;;4883116;29;20107;-89
2023/05/27 00:16:19;;;;;;;0.20;0.20;;;8.50;99.90;;;;;;4885632;29;20044;-88
2023/05/27 00:18:47;;;;;;;0.20;0.20;;;8.50;99.90;;;;;;4883634;29;20107;-88
2023/05/27 00:21:13;;;;;;;0.10;0.10;;;8.50;99.90;;;;;;4876228;29;20064;-89
2023/05/27 00:23:38;;;;;;;0.20;0.20;;;8.50;99.90;;;;;;4879466;29;20048;-88
2023/05/27 00:26:04;;;;;;;0.20;0.20;;;8.50;99.90;;;;;;4884720;29;20636;-89
2023/05/27 00:28:31;;;;;;;0.20;0.20;;;8.50;99.90;;;;;;4891969;29;20056;-88
2023/05/27 00:30:57;;;;;;;0.20;0.20;;;8.50;99.90;;;;;;4886448;29;20606;-88
2023/05/27 00:33:23;;;;;;;0.20;0.20;;;8.50;99.90;;;;;;4876500;29;20513;-88
2023/05/27 00:35:49;;;;;;;0.20;0.20;;;8.40;99.90;;;;;;4883343;29;20056;-88
2023/05/27 00:38:15;;;;;;;0.20;0.20;;;8.50;99.90;;;;;;4871136;29;20838;-89
2023/05/27 00:40:42;;;;;;;0.20;0.20;;;8.40;99.90;;;;;;4893569;29;20644;-89
2023/05/27 00:43:07;;;;;;;0.20;0.20;;;8.40;99.90;;;;;;4892210;29;20092;-88
2023/05/27 00:45:33;;;;;;;0.10;0.10;;;8.40;99.90;;;;;;4889790;29;20516;-89
2023/05/27 00:48:02;;;;;;;0.20;0.20;;;8.40;99.90;;;;;;4869813;29;20453;-89
2023/05/27 00:50:28;;;;;;;0.20;0.20;;;8.50;99.90;;;;;;4877567;29;20048;-88
2023/05/27 00:52:55;;;;;;;0.20;0.20;;;8.50;99.90;;;;;;4874872;29;20048;-88
2023/05/27 00:55:22;;;;;;;0.15;0.15;;;8.50;99.90;;;;;;4890564;29;20045;-87
2023/05/27 00:57:47;;;;;;;0.10;0.10;;;8.40;99.90;;;;;;4904770;29;20037;-88
2023/05/27 01:00:14;;;;;;;0.10;0.10;;;8.40;99.90;;;;;;4917256;29;20052;-88
2023/05/27 01:02:42;;;;;;;0.20;0.20;;;8.40;99.90;;;;;;4888731;29;20044;-88
2023/05/27 01:05:11;;;;;;;0.10;0.10;;;8.40;99.90;;;;;;4873889;29;20410;-89
2023/05/27 01:08:00;;;;;;;0.20;0.20;;;8.40;99.90;;;;;;4885832;29;20123;-88
2023/05/27 01:10:39;;;;;;;0.17;0.17;;;8.30;99.90;;;;;;4891756;29;20045;-88
2023/05/27 01:13:08;;;;;;;0.10;0.10;;;8.30;99.90;;;;;;4866134;29;20056;-88
2023/05/27 01:15:35;;;;;;;0.20;0.20;;;8.30;99.90;;;;;;4886462;29;20105;-89
2023/05/27 01:18:05;;;;;;;0.10;0.10;;;8.30;99.90;;;;;;4888834;29;20099;-88
2023/05/27 01:20:40;;;;;;;0.20;0.20;;;8.20;99.90;;;;;;4873765;29;20048;-88
2023/05/27 01:23:08;;;;;;;0.10;0.10;;;8.20;99.90;;;;;;4903697;29;20469;-88
2023/05/27 01:25:33;;;;;;;0.20;0.20;;;8.20;99.90;;;;;;4882176;29;20041;-89
2023/05/27 01:27:59;;;;;;;0.20;0.20;;;8.20;99.90;;;;;;4889766;29;20048;-88
2023/05/27 01:30:25;;;;;;;0.20;0.20;;;8.20;99.90;;;;;;4884788;29;20086;-88
2023/05/27 01:33:09;;;;;;;0.10;0.10;;;8.10;99.90;;;;;;4885431;29;20100;-90
2023/05/27 01:35:52;;;;;;;0.20;0.20;;;8.20;99.90;;;;;;4871049;29;20065;-90
2023/05/27 01:38:20;;;;;;;0.13;0.13;;;8.20;99.90;;;;;;4883453;29;20100;-89
2023/05/27 01:40:48;;;;;;;0.17;0.17;;;8.20;99.90;;;;;;4889828;29;20037;-89
2023/05/27 01:43:15;;;;;;;0.17;0.17;;;8.20;99.90;;;;;;4883054;29;20056;-88
2023/05/27 01:45:42;;;;;;;0.20;0.20;;;8.20;99.90;;;;;;4879527;29;20048;-89
2023/05/27 01:48:09;;;;;;;0.20;0.20;;;8.20;99.90;;;;;;4866690;29;20425;-88
2023/05/27 01:50:35;;;;;;;0.20;0.20;;;8.30;99.90;;;;;;4863228;29;20121;-89
2023/05/27 01:53:03;;;;;;;0.20;0.20;;;8.30;99.90;;;;;;4862618;29;20057;-90
2023/05/27 01:55:30;;;;;;;0.20;0.20;;;8.30;99.90;;;;;;4875776;29;20052;-89
2023/05/27 01:57:56;;;;;;;0.20;0.20;;;8.30;99.90;;;;;;4892674;29;20088;-89
2023/05/27 02:00:22;;;;;;;0.20;0.20;;;8.30;99.90;;;;;;4873113;29;20584;-89
2023/05/27 02:02:47;;;;;;;0.20;0.20;;;8.30;99.90;;;;;;4872697;29;20048;-90
2023/05/27 02:05:13;;;;;;;0.10;0.10;;;8.40;99.90;;;;;;4867047;29;20089;-89
2023/05/27 02:07:39;;;;;;;0.10;0.10;;;8.30;99.90;;;;;;4893764;29;20084;-90
2023/05/27 02:10:05;;;;;;;0.20;0.20;;;8.30;99.90;;;;;;4880279;29;20645;-90
2023/05/27 02:12:31;;;;;;;0.20;0.20;;;8.30;99.90;;;;;;4883240;29;20052;-90
2023/05/27 02:14:56;;;;;;;0.10;0.10;;;8.30;99.90;;;;;;4883382;29;20044;-89
2023/05/27 02:17:24;;;;;;;0.10;0.10;;;8.40;99.90;;;;;;4881683;29;20056;-90
2023/05/27 02:19:50;;;;;;;0.17;0.17;;;8.40;99.90;;;;;;4866029;29;20131;-87
2023/05/27 02:22:16;;;;;;;0.20;0.20;;;8.30;99.90;;;;;;4882588;29;20500;-90
2023/05/27 02:24:42;;;;;;;0.20;0.20;;;8.30;99.90;;;;;;4882518;29;20053;-88
2023/05/27 02:27:08;;;;;;;0.20;0.20;;;8.30;99.90;;;;;;4865212;29;20128;-89
2023/05/27 02:29:33;;;;;;;0.10;0.10;;;8.30;99.90;;;;;;4877905;29;20437;-89
2023/05/27 02:31:59;;;;;;;0.20;0.20;;;8.40;99.90;;;;;;4897665;29;20104;-89
2023/05/27 02:34:25;;;;;;;0.20;0.20;;;8.30;99.90;;;;;;4901562;29;20064;-90
2023/05/27 02:36:50;;;;;;;0.20;0.20;;;8.30;99.90;;;;;;4893118;29;20177;-89
2023/05/27 02:39:16;;;;;;;0.20;0.20;;;8.40;99.90;;;;;;4884969;29;20093;-88
2023/05/27 02:41:42;;;;;;;0.20;0.20;;;8.40;99.90;;;;;;4889983;29;20030;-90
2023/05/27 02:44:07;;;;;;;0.20;0.20;;;8.40;99.90;;;;;;4885936;29;20511;-90
2023/05/27 02:46:33;;;;;;;0.20;0.20;;;8.40;99.90;;;;;;4901596;29;20462;-90
2023/05/27 02:48:58;;;;;;;0.10;0.10;;;8.50;99.90;;;;;;4901289;29;20393;-90
2023/05/27 02:51:24;;;;;;;0.20;0.20;;;8.50;99.90;;;;;;4895168;29;20080;-89
2023/05/27 02:53:50;;;;;;;0.20;0.20;;;8.50;99.90;;;;;;4866372;29;20407;-89
2023/05/27 02:56:16;;;;;;;0.20;0.20;;;8.60;99.90;;;;;;4865907;29;20064;-88
2023/05/27 02:58:42;;;;;;;0.10;0.10;;;8.50;99.90;;;;;;4882724;29;20041;-88
2023/05/27 03:01:08;;;;;;;0.20;0.20;;;8.60;99.90;;;;;;4895109;29;20045;-89
2023/05/27 03:03:42;;;;;;;0.20;0.20;;;8.50;99.90;;;;;;4878849;29;20041;-87
2023/05/27 03:06:08;;;;;;;0.20;0.20;;;8.60;99.90;;;;;;4870006;29;20453;-88
2023/05/27 03:08:34;;;;;;;0.20;0.20;;;8.60;99.90;;;;;;4870056;29;20041;-89
2023/05/27 03:11:00;;;;;;;0.20;0.20;;;8.60;99.90;;;;;;4869119;29;20048;-88
2023/05/27 03:13:26;;;;;;;0.20;0.20;;;8.60;99.90;;;;;;4882915;29;20052;-89
2023/05/27 03:15:54;;;;;;;0.17;0.17;;;8.60;99.90;;;;;;4891127;29;20087;-90
2023/05/27 03:18:20;;;;;;;0.20;0.20;;;8.60;99.90;;;;;;4874805;29;20577;-90
2023/05/27 03:20:46;;;;;;;0.20;0.20;;;8.60;99.90;;;;;;4897533;29;20073;-90
2023/05/27 03:23:12;;;;;;;0.20;0.20;;;8.60;99.90;;;;;;4903246;29;20059;-89
2023/05/27 03:25:38;;;;;;;0.10;0.10;;;8.70;99.90;;;;;;4884285;29;20124;-89
2023/05/27 03:28:04;;;;;;;0.10;0.10;;;8.70;99.90;;;;;;4880335;29;20067;-89
2023/05/27 03:30:30;;;;;;;0.20;0.20;;;8.80;99.90;;;;;;4866142;29;20060;-89
2023/05/27 03:32:56;;;;;;;0.10;0.10;;;8.80;99.90;;;;;;4881998;29;20084;-90
2023/05/27 03:35:21;;;;;;;0.15;0.15;;;8.80;99.90;;;;;;4866579;29;20053;-89
2023/05/27 03:37:47;;;;;;;0.20;0.20;;;8.80;99.90;;;;;;4880483;29;20565;-89
2023/05/27 03:40:13;;;;;;;0.15;0.15;;;8.80;99.90;;;;;;4899448;29;20056;-90
2023/05/27 03:42:38;;;;;;;0.20;0.20;;;8.80;99.90;;;;;;4880121;29;20044;-89
2023/05/27 03:45:04;;;;;;;0.20;0.20;;;8.80;99.90;;;;;;4895635;29;20085;-90
2023/05/27 03:47:30;;;;;;;0.10;0.10;;;8.80;99.90;;;;;;4884484;29;20465;-89
2023/05/27 03:49:56;;;;;;;0.20;0.20;;;8.90;99.90;;;;;;4886306;29;20124;-90
2023/05/27 03:52:21;;;;;;;0.10;0.10;;;8.90;99.90;;;;;;4896573;29;20059;-90
2023/05/27 03:54:47;;;;;;;0.20;0.20;;;9.00;99.90;;;;;;4866144;29;20088;-90
2023/05/27 03:57:12;;;;;;;0.17;0.17;;;9.00;99.90;;;;;;4881514;29;20072;-89
2023/05/27 03:59:38;;;;;;;0.10;0.10;;;9.00;99.90;;;;;;4884669;29;20055;-89
2023/05/27 04:02:13;;;;;;;0.10;0.10;;;9.10;99.90;;;;;;4877526;29;20375;-89
2023/05/27 04:04:38;;;;;;;0.10;0.10;;;9.10;99.90;;;;;;4889700;29;20045;-88
2023/05/27 04:07:04;;;;;;;0.10;0.10;;;9.10;99.90;;;;;;4888292;29;20068;-90
2023/05/27 04:09:30;;;;;;;0.10;0.10;;;9.10;99.90;;;;;;4881666;29;20506;-90
2023/05/27 04:11:57;;;;;;;0.20;0.20;;;9.10;99.90;;;;;;4872021;29;20053;-89
2023/05/27 04:14:22;;;;;;;0.10;0.10;;;9.10;99.90;;;;;;4874804;29;20059;-89
2023/05/27 04:16:49;;;;;;;0.20;0.20;;;9.20;99.90;;;;;;4877504;29;20040;-89
2023/05/27 04:19:15;;;;;;;0.10;0.10;;;9.20;99.90;;;;;;4880268;29;20044;-89
2023/05/27 04:21:40;;;;;;;0.15;0.15;;;9.30;99.90;;;;;;4887176;29;20040;-90
2023/05/27 04:24:06;;;;;;;0.20;0.20;;;9.30;99.90;;;;;;4893438;29;20053;-87
2023/05/27 04:26:32;;;;;;;0.10;0.10;;;9.40;99.90;;;;;;4871810;29;20041;-90
2023/05/27 04:29:01;;;;;;;0.10;0.10;;;9.40;99.90;;;;;;4890450;29;20041;-89
2023/05/27 04:31:28;;;;;;;0.13;0.13;;;9.60;99.90;;;;;;4892537;29;20044;-89
2023/05/27 04:33:55;;;;;;;0.20;0.20;;;9.60;99.90;;;;;;4889156;29;20053;-90
2023/05/27 04:36:24;;;;;;;0.20;0.20;;;9.60;99.90;;;;;;4868156;29;20132;-89
2023/05/27 04:38:51;;;;;;;0.17;0.17;;;9.60;99.90;;;;;;4883576;29;20689;-88
2023/05/27 04:41:16;;;;;;;0.10;0.10;;;9.60;99.90;;;;;;4893008;29;20044;-90
2023/05/27 04:43:42;;;;;;;0.20;0.20;;;9.60;99.90;;;;;;4874172;29;20051;-90
2023/05/27 04:46:08;;;;;;;0.10;0.10;;;9.70;99.90;;;;;;4901078;29;20124;-89
2023/05/27 04:48:35;;;;;;;0.20;0.20;;;9.70;99.90;;;;;;4896986;29;20041;-90
2023/05/27 04:51:00;;;;;;;0.20;0.20;;;9.80;99.90;;;;;;4866433;29;20055;-89
2023/05/27 04:53:26;;;;;;;0.13;0.13;;;9.80;99.90;;;;;;4882991;29;20049;-90
2023/05/27 04:55:52;;;;;;;0.20;0.20;;;10.00;99.90;;;;;;4874320;29;20057;-88
2023/05/27 04:58:18;;;;;;;0.10;0.10;;;10.00;99.90;;;;;;4891142;29;20032;-89
2023/05/27 05:00:49;;;;;;;0.13;0.13;;;9.80;99.90;;;;;;4889301;29;20041;-89
2023/05/27 05:03:26;;;;;;;0.20;0.20;;;9.90;99.90;;;;;;4881704;29;20664;-89
2023/05/27 05:05:52;;;;;;;0.20;0.20;;;10.00;99.90;;;;;;4899086;29;20073;-89
2023/05/27 05:08:19;;;;;;;0.20;0.20;;;10.00;99.90;;;;;;4876792;29;20053;-89
2023/05/27 05:10:51;;;;;;;0.20;0.20;;;10.00;99.90;;;;;;4866912;29;20048;-89
2023/05/27 05:13:17;;;;;;;0.20;0.20;;;10.00;99.90;;;;;;4864909;29;20053;-89
2023/05/27 05:15:46;;;;;;;0.20;0.20;;;10.00;99.90;;;;;;4881759;29;20057;-88
2023/05/27 05:18:12;;;;;;;0.20;0.20;;;10.10;99.90;;;;;;4886686;29;20056;-89
2023/05/27 05:20:38;;;;;;;0.13;0.13;;;10.10;99.90;;;;;;4884489;29;20063;-90
2023/05/27 05:23:04;;;;;;;0.20;0.20;;;10.10;99.90;;;;;;4890054;29;20044;-88
2023/05/27 05:25:30;;;;;;;0.20;0.20;;;10.10;99.90;;;;;;4868353;29;20080;-89
2023/05/27 05:27:56;;;;;;;0.20;0.20;;;10.20;99.90;;;;;;4877995;29;20072;-89
2023/05/27 05:30:22;;;;;;;0.20;0.20;;;10.20;99.90;;;;;;4894788;29;20049;-88
2023/05/27 05:32:48;;;;;;;0.10;0.10;;;10.40;99.90;;;;;;4897988;29;20037;-89
2023/05/27 05:35:13;;;;;;;0.20;0.20;;;10.20;99.90;;;;;;4887821;29;20520;-87
2023/05/27 05:37:39;;;;;;;0.10;0.10;;;10.30;99.90;;;;;;4891220;29;20570;-88
2023/05/27 05:40:06;;;;;;;0.10;0.10;;;10.30;99.90;;;;;;4868334;29;20065;-87
2023/05/27 05:42:31;;;;;;;0.15;0.15;;;10.30;99.90;;;;;;4871269;29;20055;-88
2023/05/27 05:44:57;;;;;;;0.20;0.20;;;10.30;99.90;;;;;;4889046;29;20041;-88
2023/05/27 05:47:23;;;;;;;0.10;0.10;;;10.40;99.90;;;;;;4872384;29;20116;-89
2023/05/27 05:49:48;;;;;;;0.20;0.20;;;10.40;99.90;;;;;;4875859;29;20123;-90
2023/05/27 05:52:14;;;;;;;0.20;0.20;;;10.50;99.90;;;;;;4894468;29;20482;-88
2023/05/27 05:54:40;;;;;;;0.10;0.10;;;10.40;99.90;;;;;;4875742;29;20049;-89
2023/05/27 05:57:05;;;;;;;0.20;0.20;;;10.40;99.90;;;;;;4898649;29;20048;-89
2023/05/27 05:59:34;;;;;;;0.17;0.17;;;10.50;99.90;;;;;;4917843;29;20041;-88
2023/05/27 06:01:59;;;;;;;0.20;0.20;;;10.50;99.90;;;;;;4923509;29;20096;-89
2023/05/27 06:04:25;;;;;;;0.20;0.20;;;10.60;99.90;;;;;;4892659;29;20056;-89
2023/05/27 06:06:51;;;;;;;0.20;0.20;;;10.70;99.90;;;;;;4871253;29;20057;-90
2023/05/27 06:09:16;;;;;;;0.20;0.20;;;10.70;99.90;;;;;;4898727;29;20079;-89
2023/05/27 06:11:47;;;;;;;0.20;0.20;;;10.80;99.90;;;;;;4896570;29;20053;-89
2023/05/27 06:14:13;;;;;;;0.20;0.20;;;10.80;99.90;;;;;;4893779;29;20064;-91
2023/05/27 06:16:39;;;;;;;0.13;0.13;;;10.80;99.90;;;;;;4880317;29;20045;-86
2023/05/27 06:19:06;;;;;;;0.20;0.20;;;10.80;99.90;;;;;;4883452;29;20108;-87
2023/05/27 06:21:32;;;;;;;0.10;0.10;;;10.90;99.90;;;;;;4887258;29;20379;-85
2023/05/27 06:23:59;;;;;;;0.10;0.10;;;11.00;99.90;;;;;;4884235;29;20056;-88
2023/05/27 06:26:25;;;;;;;0.20;0.20;;;11.00;99.90;;;;;;4869997;29;20085;-86
2023/05/27 06:28:51;;;;;;;0.10;0.10;;;11.10;99.90;;;;;;4883978;29;20045;-88
2023/05/27 06:31:16;;;;;;;0.15;0.15;;;11.10;99.90;;;;;;4884936;29;20056;-88
2023/05/27 06:33:42;;;;;;;0.20;0.20;;;11.20;99.90;;;;;;4871623;29;20430;-87
2023/05/27 06:36:10;;;;;;;0.20;0.20;;;11.20;99.90;;;;;;4895152;29;20565;-86
2023/05/27 06:38:36;;;;;;;0.20;0.20;;;11.40;99.90;;;;;;4897371;29;20052;-87
2023/05/27 06:41:05;;;;;;;0.20;0.20;;;11.40;99.90;;;;;;4875294;29;20056;-87
2023/05/27 06:43:30;;;;;;;0.20;0.20;;;11.50;99.90;;;;;;4892241;29;20108;-88
2023/05/27 06:45:56;;;;;;;0.20;0.20;;;11.50;99.90;;;;;;4869831;29;20044;-85
2023/05/27 06:48:21;;;;;;;0.17;0.17;;;11.60;99.90;;;;;;4891533;29;20055;-85
2023/05/27 06:50:47;;;;;;;0.20;0.20;;;11.70;99.90;;;;;;4893054;29;20057;-86
2023/05/27 06:53:13;;;;;;;0.20;0.20;;;11.70;99.90;;;;;;4881355;29;20044;-85
2023/05/27 06:55:39;;;;;;;0.10;0.10;;;11.80;99.90;;;;;;4876228;29;20132;-86
2023/05/27 06:58:06;;;;;;;0.10;0.10;;;11.80;99.90;;;;;;4885408;29;20531;-86
2023/05/27 07:00:32;;;;;;;0.10;0.10;;;11.90;99.90;;;;;;4866615;29;20139;-87
2023/05/27 07:03:00;;;;;;;0.10;0.10;;;11.90;99.90;;;;;;4886853;29;20177;-85
2023/05/27 07:05:26;;;;;;;0.17;0.17;;;11.90;99.90;;;;;;4865646;29;20052;-86
2023/05/27 07:07:53;;;;;;;0.10;0.10;;;12.10;99.90;;;;;;4889241;29;20413;-85
2023/05/27 07:10:18;;;;;;;0.20;0.20;;;12.10;99.90;;;;;;4870392;29;20045;-85
2023/05/27 07:12:45;;;;;;;0.20;0.20;;;12.10;99.90;;;;;;4870939;29;20572;-87
2023/05/27 07:15:11;;;;;;;0.17;0.17;;;12.20;99.90;;;;;;4869617;29;20173;-85
2023/05/27 07:17:36;;;;;;;0.10;0.10;;;12.30;99.90;;;;;;4891460;29;20846;-87
2023/05/27 07:20:02;;;;;;;0.20;0.20;;;12.40;99.90;;;;;;4873856;29;20136;-85
2023/05/27 07:22:28;;;;;;;0.20;0.20;;;12.30;99.90;;;;;;4888583;29;20136;-86
2023/05/27 07:24:54;;;;;;;0.20;0.20;;;12.40;99.90;;;;;;4894196;29;20064;-85
2023/05/27 07:27:20;;;;;;;0.15;0.15;;;12.50;99.90;;;;;;4884681;29;20041;-85
2023/05/27 07:29:45;;;;;;;0.10;0.10;;;12.50;99.90;;;;;;4879941;29;20056;-85
2023/05/27 07:32:11;;;;;;;0.10;0.10;;;12.50;99.90;;;;;;4873831;29;20151;-86
2023/05/27 07:34:37;;;;;;;0.10;0.10;;;12.60;99.90;;;;;;4885986;29;20049;-85
2023/05/27 07:37:03;;;;;;;0.10;0.10;;;12.60;99.90;;;;;;4863826;29;20180;-85
2023/05/27 07:39:28;;;;;;;0.10;0.10;;;12.70;99.90;;;;;;4868209;29;20056;-87
2023/05/27 07:41:54;;;;;;;0.10;0.10;;;12.80;99.90;;;;;;4879113;29;20033;-85
2023/05/27 07:44:20;;;;;;;0.20;0.20;;;12.90;99.90;;;;;;4887998;29;20044;-84
2023/05/27 07:46:45;;;;;;;0.20;0.20;;;12.90;99.90;;;;;;4887199;29;20092;-85
2023/05/27 07:49:13;;;;;;;0.10;0.10;;;13.00;99.90;;;;;;4859417;29;20061;-85
2023/05/27 07:51:39;;;;;;;0.20;0.20;;;13.10;99.90;;;;;;4881833;29;20045;-86
2023/05/27 07:54:05;;;;;;;0.20;0.20;;;13.10;99.90;;;;;;4875909;29;20063;-86
2023/05/27 07:56:30;;;;;;;0.20;0.20;;;13.20;99.90;;;;;;4892869;29;20045;-86
2023/05/27 07:58:56;;;;;;;0.20;0.20;;;13.20;99.90;;;;;;4861966;29;20041;-85
2023/05/27 08:01:21;;;;;;;0.20;0.20;;;13.20;99.90;;;;;;4869257;29;20052;-85
2023/05/27 08:03:47;;;;;;;0.20;0.20;;;13.30;99.90;;;;;;4880453;29;20045;-84
2023/05/27 08:06:13;;;;;;;0.20;0.20;;;13.30;99.90;;;;;;4883803;29;20041;-86
2023/05/27 08:08:38;;;;;;;0.20;0.20;;;13.40;99.90;;;;;;4866121;29;20052;-86
2023/05/27 08:11:04;;;;;;;0.10;0.10;;;13.40;99.90;;;;;;4866228;29;20059;-87
2023/05/27 08:13:30;;;;;;;0.15;0.15;;;13.40;99.90;;;;;;4865901;29;20193;-86
2023/05/27 08:15:59;;;;;;;0.20;0.20;;;13.50;99.90;;;;;;4878650;29;20071;-85
2023/05/27 08:18:30;;;;;;;0.20;0.20;;;13.50;99.90;;;;;;4864115;29;20514;-86
2023/05/27 08:20:56;;;;;;;0.20;0.20;;;13.50;99.90;;;;;;4865266;29;20098;-85
2023/05/27 08:23:22;;;;;;;0.10;0.10;;;13.70;99.90;;;;;;4859284;29;20486;-87
2023/05/27 08:25:47;;;;;;;0.20;0.20;;;13.80;99.90;;;;;;4866018;29;20679;-86
2023/05/27 08:28:14;;;;;;;0.20;0.20;;;13.90;99.90;;;;;;4865617;29;20049;-88
2023/05/27 08:30:40;;;;;;;0.20;0.20;;;13.90;99.90;;;;;;4863521;29;20056;-87
2023/05/27 08:33:06;;;;;;;0.20;0.20;;;14.00;99.90;;;;;;4860572;29;20362;-87
2023/05/27 08:35:31;;;;;;;0.13;0.13;;;14.10;99.90;;;;;;4889602;29;20059;-85
2023/05/27 08:37:57;;;;;;;0.20;0.20;;;14.10;99.90;;;;;;4861903;29;20060;-85
2023/05/27 08:40:23;;;;;;;0.20;0.20;;;14.20;99.90;;;;;;4859889;29;20139;-84
2023/05/27 08:42:49;;;;;;;0.20;0.20;;;14.30;99.90;;;;;;4881042;29;20056;-80
2023/05/27 08:45:15;;;;;;;0.20;0.20;;;14.30;99.90;;;;;;4876542;29;20172;-82
2023/05/27 08:47:41;;;;;;;0.15;0.15;;;14.30;99.90;;;;;;4878385;29;20056;-86
2023/05/27 08:50:09;;;;;;;0.17;0.17;;;14.40;99.90;;;;;;4877312;29;20132;-83
2023/05/27 08:52:49;;;;;;;0.20;0.20;;;14.50;99.90;;;;;;4859669;29;20064;-84
2023/05/27 08:55:20;;;;;;;0.20;0.20;;;14.50;99.90;;;;;;4854291;29;20061;-87
2023/05/27 08:57:49;;;;;;;;;;;14.60;99.90;;;;;;4873313;29;20037;-84
2023/05/27 09:00:15;;;;;;;0.10;0.10;;;14.60;99.90;;;;;;4879665;29;20304;-85
2023/05/27 09:02:41;;;;;;;0.20;0.20;;;14.60;99.90;;;;;;4876890;29;20048;-86
2023/05/27 09:05:11;;;;;;;0.20;0.20;;;14.60;99.90;;;;;;4864383;29;20044;-86
2023/05/27 09:07:37;;;;;;;0.10;0.10;;;14.70;99.90;;;;;;4862171;29;20056;-84
2023/05/27 09:10:06;;;;;;;0.15;0.15;;;14.70;99.90;;;;;;4861579;29;20048;-85
2023/05/27 09:12:32;;;;;;;0.10;0.10;;;14.80;99.90;;;;;;4876667;29;20080;-84
2023/05/27 09:15:01;;;;;;;0.20;0.20;;;14.90;99.90;;;;;;4884644;29;20067;-85
2023/05/27 09:17:26;;;;;;;0.10;0.10;;;14.90;99.90;;;;;;4878995;29;20686;-85
2023/05/27 09:19:54;;;;;;;0.13;0.13;;;14.90;99.90;;;;;;4875354;29;20076;-86
2023/05/27 09:22:30;;;;;;;0.13;0.13;;;15.00;99.90;;;;;;4908322;29;20096;-86
2023/05/27 09:24:56;;;;;;;0.20;0.20;;;15.00;99.90;;;;;;4872634;29;20113;-85
2023/05/27 09:27:30;;;;;;;0.20;0.20;;;15.00;99.90;;;;;;4870092;29;20119;-86
2023/05/27 09:29:56;;;;;;;0.10;0.10;;;15.10;99.90;;;;;;4896098;29;20047;-85
2023/05/27 09:32:33;;;;;;;0.20;0.20;;;15.10;99.90;;;;;;4877298;29;20051;-86
2023/05/27 09:35:01;;;;;;;0.20;0.20;;;15.20;99.90;;;;;;4883471;29;20529;-84
2023/05/27 09:37:31;;;;;;;0.10;0.10;;;15.20;99.90;;;;;;4860768;29;20061;-86
2023/05/27 09:40:09;;;;;;;0.10;0.10;;;15.20;99.90;;;;;;4894885;29;20055;-86
2023/05/27 09:42:46;;;;;;;0.10;0.10;;;15.30;99.90;;;;;;4860632;29;20378;-86
2023/05/27 09:45:15;;;;;;;0.20;0.20;;;15.40;99.90;;;;;;4877755;29;20406;-87
2023/05/27 09:47:45;;;;;;;0.15;0.15;;;15.40;99.90;;;;;;4875191;29;20053;-87
2023/05/27 09:50:14;;;;;;;0.10;0.10;;;15.40;99.90;;;;;;4877298;29;20061;-84
2023/05/27 09:52:41;;;;;;;0.20;0.20;;;15.50;99.90;;;;;;4882969;29;20076;-83
2023/05/27 09:55:12;;;;;;;0.10;0.10;;;15.50;99.90;;;;;;4868387;29;20053;-85
2023/05/27 09:57:38;;;;;;;0.20;0.20;;;15.50;99.90;;;;;;4864468;29;20079;-87
2023/05/27 10:00:12;;;;;;;0.20;0.20;;;15.60;99.90;;;;;;4894991;29;20564;-86
2023/05/27 10:02:48;;;;;;;0.10;0.10;;;15.60;99.90;;;;;;4881398;29;20461;-84
2023/05/27 10:05:16;;;;;;;0.20;0.20;;;15.70;99.90;;;;;;4860208;29;20065;-85
2023/05/27 10:07:44;;;;;;;0.20;0.20;;;15.70;99.90;;;;;;4877808;29;20064;-86
2023/05/27 10:10:12;;;;;;;0.20;0.20;;;15.70;99.90;;;;;;4877069;29;20041;-88
2023/05/27 10:12:43;;;;;;;0.15;0.15;;;15.80;99.90;;;;;;4860078;29;20053;-85
2023/05/27 10:15:09;;;;;;;0.20;0.20;;;15.80;99.90;;;;;;4859523;29;20100;-86
2023/05/27 10:17:49;;;;;;;0.20;0.20;;;15.90;99.90;;;;;;4881120;29;20060;-87
2023/05/27 10:20:29;;;;;;;0.20;0.20;;;16.00;99.90;;;;;;4860669;29;20080;-87
2023/05/27 10:22:54;;;;;;;0.20;0.20;;;16.00;99.90;;;;;;4875833;29;20060;-87
2023/05/27 10:25:35;;;;;;;0.10;0.10;;;16.10;99.90;;;;;;4864010;29;20136;-85
2023/05/27 10:28:00;;;;;;;0.20;0.20;;;16.20;99.90;;;;;;4863146;29;20113;-84
2023/05/27 10:30:26;;;;;;;0.20;0.20;;;16.20;99.90;;;;;;4880658;29;20488;-85
2023/05/27 10:33:13;;;;;;;0.20;0.20;;;16.30;99.90;;;;;;4880518;29;20056;-85
2023/05/27 10:35:43;;;;;;;0.20;0.20;;;16.40;99.90;;;;;;4898647;29;20049;-86
2023/05/27 10:38:18;;;;;;;0.10;0.10;;;16.40;99.90;;;;;;4882057;29;20052;-86
2023/05/27 10:40:50;;;;;;;0.20;0.20;;;16.40;99.90;;;;;;4897888;29;20055;-85
2023/05/27 10:43:19;;;;;;;0.20;0.20;;;16.50;99.90;;;;;;4871838;29;20049;-86
2023/05/27 10:45:45;;;;;;;0.20;0.20;;;16.50;99.90;;;;;;4862606;29;20060;-85
2023/05/27 10:48:28;;;;;;;0.10;0.10;;;16.60;99.90;;;;;;4862062;29;20482;-85
2023/05/27 10:50:57;;;;;;;0.20;0.20;;;16.60;99.90;;;;;;4863446;29;20541;-84
2023/05/27 10:53:25;;;;;;;0.20;0.20;;;16.70;99.90;;;;;;4879650;29;20081;-86
2023/05/27 10:55:51;;;;;;;0.13;0.13;;;16.80;99.90;;;;;;4879520;29;20162;-85
2023/05/27 10:58:17;;;;;;;0.20;0.20;;;16.80;99.90;;;;;;4862154;29;20045;-85
2023/05/27 11:00:47;;;;;;;0.20;0.20;;;16.90;99.90;;;;;;4887203;29;20084;-86
2023/05/27 11:03:27;;;;;;;0.10;0.10;;;17.00;99.90;;;;;;4893421;29;20149;-84
2023/05/27 11:06:04;;;;;;;0.17;0.17;;;17.00;99.90;;;;;;4881162;29;20128;-84
2023/05/27 11:08:31;;;;;;;3.67;0.30;;;17.10;99.90;;;;;;4864265;29;20128;-86
2023/05/27 11:11:02;;;;;;;0.20;0.20;;;17.10;99.90;;;;;;4887672;29;20057;-86
2023/05/27 11:13:34;;;;;;;0.20;0.20;;;17.30;99.90;;;;;;4880155;29;20053;-86
2023/05/27 11:16:03;;;;;;;0.13;0.13;;;17.30;99.90;;;;;;4862120;29;20107;-86
2023/05/27 11:18:46;;;;;;;0.65;0.65;;;17.30;99.90;;;;;;4860459;29;20490;-86
2023/05/27 11:21:13;;;;;;;0.10;0.10;;;17.50;99.90;;;;;;4862090;29;20053;-85
2023/05/27 11:23:40;;;;;;;0.20;0.20;;;17.60;99.90;;;;;;4862282;29;20372;-86
2023/05/27 11:26:15;;;;;;;0.20;0.20;;;17.60;99.90;;;;;;4878381;29;20045;-85
2023/05/27 11:28:53;;;;;;;0.20;0.20;;;17.80;99.90;;;;;;4878932;29;20430;-86
2023/05/27 11:31:21;;;;;;;0.20;0.20;;;17.90;99.90;;;;;;4863672;29;20101;-86
2023/05/27 11:33:49;;;;;;;0.20;0.20;;;18.00;99.90;;;;;;4886710;29;20127;-84
2023/05/27 11:36:16;;;;;;;0.20;0.20;;;18.10;99.90;;;;;;4870940;29;20068;-85
2023/05/27 11:38:47;;;;;;;0.20;0.20;;;18.20;99.90;;;;;;4860350;29;20084;-85
2023/05/27 11:41:13;;;;;;;0.10;0.10;;;18.30;99.90;;;;;;4877758;29;20063;-86
2023/05/27 11:44:08;;;;;;;0.20;0.20;;;18.40;99.90;;;;;;4861936;29;20041;-84
2023/05/27 11:46:42;;;;;;;0.20;0.20;;;18.50;99.90;;;;;;4871708;29;20514;-87
2023/05/27 11:49:10;;;;;;;0.20;0.20;;;18.60;99.60;;;;;;4886427;29;20045;-87
2023/05/27 11:51:47;;;;;;;0.20;0.20;;;18.60;99.60;;;;;;4865883;29;20049;-84
2023/05/27 11:54:27;;;;;;;0.20;0.20;;;18.60;99.70;;;;;;4878754;29;20045;-87
2023/05/27 11:56:54;;;;;;;0.20;0.20;;;18.80;99.50;;;;;;4861785;29;20057;-86
2023/05/27 11:59:21;;;;;;;0.20;0.20;;;18.90;99.30;;;;;;4861520;29;20041;-86
2023/05/27 12:01:47;;;;;;;0.20;0.20;;;18.90;99.40;;;;;;4868787;29;20048;-86
2023/05/27 12:04:13;;;;;;;0.10;0.10;;;19.00;99.60;;;;;;4896743;29;20041;-86
2023/05/27 12:06:42;;;;;;;0.20;0.20;;;19.10;99.30;;;;;;4878907;29;20048;-86
2023/05/27 12:09:09;;;;;;;0.20;0.20;;;19.20;99.10;;;;;;4867557;29;20101;-86
2023/05/27 12:11:35;;;;;;;0.20;0.20;;;19.30;98.80;;;;;;4893872;29;20471;-87
2023/05/27 12:14:01;;;;;;;0.20;0.20;;;19.40;98.90;;;;;;4865136;29;20127;-85
2023/05/27 12:16:27;;;;;;;0.20;0.20;;;19.40;98.70;;;;;;4862380;29;20462;-86
2023/05/27 12:18:53;;;;;;;0.20;0.20;;;19.50;98.60;;;;;;4860389;29;20127;-84
2023/05/27 12:21:19;;;;;;;0.20;0.20;;;19.60;98.40;;;;;;4878293;29;20132;-86
2023/05/27 12:23:45;;;;;;;0.20;0.20;;;19.60;98.30;;;;;;4878264;29;20087;-87
2023/05/27 12:26:12;;;;;;;0.20;0.20;;;19.80;98.30;;;;;;4861615;29;20116;-84
2023/05/27 12:28:47;;;;;;;0.20;0.20;;;19.90;98.30;;;;;;4880969;29;20053;-84
2023/05/27 12:31:13;;;;;;;0.20;0.20;;;20.00;98.20;;;;;;4876383;29;20100;-85
2023/05/27 12:33:39;;;;;;;0.20;0.20;;;20.00;97.70;;;;;;4887549;29;20044;-84
2023/05/27 12:36:08;;;;;;;0.20;0.20;;;20.10;97.60;;;;;;4895754;29;20060;-85
2023/05/27 12:38:33;;;;;;;0.20;0.20;;;20.20;97.50;;;;;;4868081;29;20092;-86
2023/05/27 12:40:59;;;;;;;0.20;0.20;;;20.20;97.50;;;;;;4896360;29;20045;-87
2023/05/27 12:43:25;;;;;;;0.20;0.20;;;20.30;97.30;;;;;;4867446;29;20049;-86
2023/05/27 12:45:52;;;;;;;0.15;0.15;;;20.30;97.00;;;;;;4878364;29;20079;-87
2023/05/27 12:48:17;;;;;;;0.20;0.20;;;20.40;97.10;;;;;;4882485;29;20116;-86
2023/05/27 12:50:43;;;;;;;0.20;0.20;;;20.40;97.10;;;;;;4896172;29;20659;-87
2023/05/27 12:53:09;;;;;;;0.20;0.20;;;20.50;97.00;;;;;;4878079;29;20752;-88